sensor_id;sensor_type;location;lat;lon;timestamp;P1;durP1;ratioP1;P2;durP2;ratioP2
20725;SDS011;10524;48.132;8.518;2024-02-15T00:00:21;7.88;;;5.65;;
20725;SDS011;10524;48.132;8.518;2024-02-15T00:02:48;8.50;;;6.03;;
20725;SDS011;10524;48.132;8.518;2024-02-15T00:05:14;9.98;;;5.65;;
20725;SDS011;10524;48.132;8.518;2024-02-15T00:07:41;8.23;;;5.93;;
20725;SDS011;10524;48.132;8.518;2024-02-15T00:10:07;8.43;;;5.70;;
20725;SDS011;10524;48.132;8.518;2024-02-15T00:12:34;13.18;;;5.80;;
20725;SDS011;10524;48.132;8.518;2024-02-15T00:14:59;9.10;;;6.15;;
20725;SDS011;10524;48.132;8.518;2024-02-15T00:17:26;10.63;;;7.72;;
20725;SDS011;10524;48.132;8.518;2024-02-15T00:19:54;14.60;;;8.70;;
20725;SDS011;10524;48.132;8.518;2024-02-15T00:22:20;12.50;;;8.45;;
20725;SDS011;10524;48.132;8.518;2024-02-15T00:24:46;14.05;;;10.15;;
20725;SDS011;10524;48.132;8.518;2024-02-15T00:27:14;16.60;;;9.68;;
20725;SDS011;10524;48.132;8.518;2024-02-15T00:29:41;19.20;;;11.50;;
20725;SDS011;10524;48.132;8.518;2024-02-15T00:32:08;17.42;;;10.98;;
20725;SDS011;10524;48.132;8.518;2024-02-15T00:34:36;14.88;;;10.13;;
20725;SDS011;10524;48.132;8.518;2024-02-15T00:37:04;17.88;;;10.95;;
20725;SDS011;10524;48.132;8.518;2024-02-15T00:39:30;15.23;;;10.20;;
20725;SDS011;10524;48.132;8.518;2024-02-15T00:41:57;16.10;;;10.00;;
20725;SDS011;10524;48.132;8.518;2024-02-15T00:44:25;8.35;;;6.80;;
20725;SDS011;10524;48.132;8.518;2024-02-15T00:46:51;7.68;;;5.55;;
20725;SDS011;10524;48.132;8.518;2024-02-15T00:49:17;7.38;;;5.60;;
20725;SDS011;10524;48.132;8.518;2024-02-15T00:51:45;7.25;;;5.25;;
20725;SDS011;10524;48.132;8.518;2024-02-15T00:54:12;7.75;;;5.05;;
20725;SDS011;10524;48.132;8.518;2024-02-15T00:56:38;9.40;;;5.72;;
20725;SDS011;10524;48.132;8.518;2024-02-15T00:59:05;11.93;;;7.00;;
20725;SDS011;10524;48.132;8.518;2024-02-15T01:01:30;15.10;;;8.30;;
20725;SDS011;10524;48.132;8.518;2024-02-15T01:03:57;13.70;;;8.23;;
20725;SDS011;10524;48.132;8.518;2024-02-15T01:06:23;9.90;;;6.30;;
20725;SDS011;10524;48.132;8.518;2024-02-15T01:08:49;9.25;;;6.18;;
20725;SDS011;10524;48.132;8.518;2024-02-15T01:11:14;8.43;;;6.10;;
20725;SDS011;10524;48.132;8.518;2024-02-15T01:13:40;10.00;;;6.22;;
20725;SDS011;10524;48.132;8.518;2024-02-15T01:16:07;11.18;;;5.78;;
20725;SDS011;10524;48.132;8.518;2024-02-15T01:18:33;8.82;;;5.10;;
20725;SDS011;10524;48.132;8.518;2024-02-15T01:21:00;9.77;;;5.65;;
20725;SDS011;10524;48.132;8.518;2024-02-15T01:23:26;7.90;;;5.43;;
20725;SDS011;10524;48.132;8.518;2024-02-15T01:25:52;9.43;;;6.53;;
20725;SDS011;10524;48.132;8.518;2024-02-15T01:28:17;10.18;;;6.50;;
20725;SDS011;10524;48.132;8.518;2024-02-15T01:30:43;12.10;;;8.10;;
20725;SDS011;10524;48.132;8.518;2024-02-15T01:33:11;15.20;;;9.40;;
20725;SDS011;10524;48.132;8.518;2024-02-15T01:35:37;16.33;;;9.38;;
20725;SDS011;10524;48.132;8.518;2024-02-15T01:38:03;16.25;;;9.68;;
20725;SDS011;10524;48.132;8.518;2024-02-15T01:40:32;14.02;;;8.25;;
20725;SDS011;10524;48.132;8.518;2024-02-15T01:42:58;18.17;;;9.85;;
20725;SDS011;10524;48.132;8.518;2024-02-15T01:45:25;23.60;;;12.18;;
20725;SDS011;10524;48.132;8.518;2024-02-15T01:47:52;21.15;;;11.98;;
20725;SDS011;10524;48.132;8.518;2024-02-15T01:50:18;22.95;;;12.55;;
20725;SDS011;10524;48.132;8.518;2024-02-15T01:52:47;22.27;;;11.68;;
20725;SDS011;10524;48.132;8.518;2024-02-15T01:55:13;14.35;;;8.43;;
20725;SDS011;10524;48.132;8.518;2024-02-15T01:57:40;9.07;;;6.85;;
20725;SDS011;10524;48.132;8.518;2024-02-15T02:00:11;10.63;;;6.88;;
20725;SDS011;10524;48.132;8.518;2024-02-15T02:02:38;11.65;;;7.13;;
20725;SDS011;10524;48.132;8.518;2024-02-15T02:05:06;9.38;;;6.40;;
20725;SDS011;10524;48.132;8.518;2024-02-15T02:07:33;9.57;;;6.20;;
20725;SDS011;10524;48.132;8.518;2024-02-15T02:09:58;13.75;;;7.63;;
20725;SDS011;10524;48.132;8.518;2024-02-15T02:12:25;15.75;;;9.05;;
20725;SDS011;10524;48.132;8.518;2024-02-15T02:14:55;15.52;;;10.10;;
20725;SDS011;10524;48.132;8.518;2024-02-15T02:17:20;17.40;;;10.38;;
20725;SDS011;10524;48.132;8.518;2024-02-15T02:19:46;21.58;;;11.38;;
20725;SDS011;10524;48.132;8.518;2024-02-15T02:22:14;25.33;;;13.50;;
20725;SDS011;10524;48.132;8.518;2024-02-15T02:27:38;14.93;;;8.80;;
20725;SDS011;10524;48.132;8.518;2024-02-15T02:30:05;12.90;;;8.35;;
20725;SDS011;10524;48.132;8.518;2024-02-15T02:32:40;13.85;;;8.00;;
20725;SDS011;10524;48.132;8.518;2024-02-15T02:35:06;13.00;;;7.82;;
20725;SDS011;10524;48.132;8.518;2024-02-15T02:37:32;10.88;;;7.40;;
20725;SDS011;10524;48.132;8.518;2024-02-15T02:40:02;15.18;;;8.63;;
20725;SDS011;10524;48.132;8.518;2024-02-15T02:42:29;15.32;;;10.43;;
20725;SDS011;10524;48.132;8.518;2024-02-15T02:44:55;25.40;;;13.82;;
20725;SDS011;10524;48.132;8.518;2024-02-15T02:47:20;25.92;;;14.60;;
20725;SDS011;10524;48.132;8.518;2024-02-15T02:49:47;27.83;;;14.98;;
20725;SDS011;10524;48.132;8.518;2024-02-15T02:52:12;26.80;;;14.60;;
20725;SDS011;10524;48.132;8.518;2024-02-15T02:54:38;20.85;;;11.82;;
20725;SDS011;10524;48.132;8.518;2024-02-15T02:57:04;20.45;;;11.85;;
20725;SDS011;10524;48.132;8.518;2024-02-15T02:59:31;18.73;;;12.43;;
20725;SDS011;10524;48.132;8.518;2024-02-15T03:01:59;20.85;;;12.20;;
20725;SDS011;10524;48.132;8.518;2024-02-15T03:04:24;24.05;;;13.23;;
20725;SDS011;10524;48.132;8.518;2024-02-15T03:06:50;25.70;;;14.30;;
20725;SDS011;10524;48.132;8.518;2024-02-15T03:09:16;27.73;;;14.23;;
20725;SDS011;10524;48.132;8.518;2024-02-15T03:11:42;28.85;;;15.65;;
20725;SDS011;10524;48.132;8.518;2024-02-15T03:14:08;25.98;;;14.50;;
20725;SDS011;10524;48.132;8.518;2024-02-15T03:16:33;28.35;;;14.40;;
20725;SDS011;10524;48.132;8.518;2024-02-15T03:18:59;24.20;;;13.20;;
20725;SDS011;10524;48.132;8.518;2024-02-15T03:21:29;23.25;;;13.05;;
20725;SDS011;10524;48.132;8.518;2024-02-15T03:23:55;22.85;;;12.38;;
20725;SDS011;10524;48.132;8.518;2024-02-15T03:26:30;18.70;;;12.15;;
20725;SDS011;10524;48.132;8.518;2024-02-15T03:29:06;20.05;;;12.38;;
20725;SDS011;10524;48.132;8.518;2024-02-15T03:31:35;19.88;;;11.50;;
20725;SDS011;10524;48.132;8.518;2024-02-15T03:34:04;22.73;;;13.40;;
20725;SDS011;10524;48.132;8.518;2024-02-15T03:36:30;26.23;;;13.98;;
20725;SDS011;10524;48.132;8.518;2024-02-15T03:38:57;23.98;;;13.00;;
20725;SDS011;10524;48.132;8.518;2024-02-15T03:41:22;22.85;;;11.98;;
20725;SDS011;10524;48.132;8.518;2024-02-15T03:43:48;19.92;;;11.63;;
20725;SDS011;10524;48.132;8.518;2024-02-15T03:46:14;18.90;;;11.40;;
20725;SDS011;10524;48.132;8.518;2024-02-15T03:48:43;19.02;;;11.50;;
20725;SDS011;10524;48.132;8.518;2024-02-15T03:51:09;21.23;;;11.50;;
20725;SDS011;10524;48.132;8.518;2024-02-15T03:53:35;20.60;;;11.88;;
20725;SDS011;10524;48.132;8.518;2024-02-15T03:56:04;20.05;;;12.05;;
20725;SDS011;10524;48.132;8.518;2024-02-15T03:58:31;21.40;;;11.95;;
20725;SDS011;10524;48.132;8.518;2024-02-15T04:00:58;24.25;;;12.77;;
20725;SDS011;10524;48.132;8.518;2024-02-15T04:03:24;22.80;;;13.38;;
20725;SDS011;10524;48.132;8.518;2024-02-15T04:05:50;22.73;;;13.93;;
20725;SDS011;10524;48.132;8.518;2024-02-15T04:08:16;28.70;;;14.65;;
20725;SDS011;10524;48.132;8.518;2024-02-15T04:10:42;30.05;;;15.13;;
20725;SDS011;10524;48.132;8.518;2024-02-15T04:13:08;26.60;;;15.20;;
20725;SDS011;10524;48.132;8.518;2024-02-15T04:15:34;26.20;;;14.30;;
20725;SDS011;10524;48.132;8.518;2024-02-15T04:18:00;23.70;;;13.00;;
20725;SDS011;10524;48.132;8.518;2024-02-15T04:20:25;23.33;;;12.57;;
20725;SDS011;10524;48.132;8.518;2024-02-15T04:22:51;24.88;;;13.85;;
20725;SDS011;10524;48.132;8.518;2024-02-15T04:25:19;26.92;;;14.45;;
20725;SDS011;10524;48.132;8.518;2024-02-15T04:27:48;22.58;;;13.60;;
20725;SDS011;10524;48.132;8.518;2024-02-15T04:30:14;23.77;;;13.95;;
20725;SDS011;10524;48.132;8.518;2024-02-15T04:32:44;22.50;;;12.77;;
20725;SDS011;10524;48.132;8.518;2024-02-15T04:35:10;19.77;;;12.10;;
20725;SDS011;10524;48.132;8.518;2024-02-15T04:37:36;27.05;;;13.98;;
20725;SDS011;10524;48.132;8.518;2024-02-15T04:40:03;31.90;;;16.88;;
20725;SDS011;10524;48.132;8.518;2024-02-15T04:42:35;29.05;;;15.25;;
20725;SDS011;10524;48.132;8.518;2024-02-15T04:45:12;27.60;;;14.65;;
20725;SDS011;10524;48.132;8.518;2024-02-15T04:47:40;30.92;;;15.55;;
20725;SDS011;10524;48.132;8.518;2024-02-15T04:50:06;28.95;;;15.00;;
20725;SDS011;10524;48.132;8.518;2024-02-15T04:52:34;29.80;;;15.95;;
20725;SDS011;10524;48.132;8.518;2024-02-15T04:55:00;30.00;;;14.90;;
20725;SDS011;10524;48.132;8.518;2024-02-15T04:57:29;25.83;;;13.48;;
20725;SDS011;10524;48.132;8.518;2024-02-15T04:59:55;22.90;;;13.55;;
20725;SDS011;10524;48.132;8.518;2024-02-15T05:02:21;22.02;;;11.77;;
20725;SDS011;10524;48.132;8.518;2024-02-15T05:04:50;20.65;;;12.00;;
20725;SDS011;10524;48.132;8.518;2024-02-15T05:07:21;24.77;;;13.90;;
20725;SDS011;10524;48.132;8.518;2024-02-15T05:09:50;26.55;;;14.80;;
20725;SDS011;10524;48.132;8.518;2024-02-15T05:12:23;25.33;;;14.20;;
20725;SDS011;10524;48.132;8.518;2024-02-15T05:14:52;27.15;;;15.60;;
20725;SDS011;10524;48.132;8.518;2024-02-15T05:17:18;24.00;;;13.82;;
20725;SDS011;10524;48.132;8.518;2024-02-15T05:19:44;30.05;;;16.65;;
20725;SDS011;10524;48.132;8.518;2024-02-15T05:22:10;26.15;;;14.05;;
20725;SDS011;10524;48.132;8.518;2024-02-15T05:24:36;32.25;;;16.10;;
20725;SDS011;10524;48.132;8.518;2024-02-15T05:27:04;31.63;;;19.35;;
20725;SDS011;10524;48.132;8.518;2024-02-15T05:29:30;32.47;;;19.02;;
20725;SDS011;10524;48.132;8.518;2024-02-15T05:31:59;33.72;;;19.30;;
20725;SDS011;10524;48.132;8.518;2024-02-15T05:34:25;25.55;;;16.45;;
20725;SDS011;10524;48.132;8.518;2024-02-15T05:36:51;23.65;;;14.90;;
20725;SDS011;10524;48.132;8.518;2024-02-15T05:39:17;30.88;;;17.23;;
20725;SDS011;10524;48.132;8.518;2024-02-15T05:41:46;25.92;;;16.25;;
20725;SDS011;10524;48.132;8.518;2024-02-15T05:44:12;32.03;;;17.52;;
20725;SDS011;10524;48.132;8.518;2024-02-15T05:46:43;34.97;;;18.90;;
20725;SDS011;10524;48.132;8.518;2024-02-15T05:49:08;35.15;;;19.88;;
20725;SDS011;10524;48.132;8.518;2024-02-15T05:51:40;35.53;;;18.50;;
20725;SDS011;10524;48.132;8.518;2024-02-15T05:54:06;29.98;;;18.35;;
20725;SDS011;10524;48.132;8.518;2024-02-15T05:56:32;33.40;;;18.73;;
20725;SDS011;10524;48.132;8.518;2024-02-15T05:58:58;34.65;;;20.92;;
20725;SDS011;10524;48.132;8.518;2024-02-15T06:01:23;173.73;;;74.03;;
20725;SDS011;10524;48.132;8.518;2024-02-15T06:03:49;138.32;;;69.05;;
20725;SDS011;10524;48.132;8.518;2024-02-15T06:06:19;132.18;;;64.50;;
20725;SDS011;10524;48.132;8.518;2024-02-15T06:08:46;84.82;;;47.03;;
20725;SDS011;10524;48.132;8.518;2024-02-15T06:11:13;82.85;;;42.58;;
20725;SDS011;10524;48.132;8.518;2024-02-15T06:13:39;40.28;;;22.08;;
20725;SDS011;10524;48.132;8.518;2024-02-15T06:16:06;42.85;;;20.95;;
20725;SDS011;10524;48.132;8.518;2024-02-15T06:18:34;51.83;;;27.73;;
20725;SDS011;10524;48.132;8.518;2024-02-15T06:21:00;50.70;;;26.45;;
20725;SDS011;10524;48.132;8.518;2024-02-15T06:23:27;45.33;;;23.50;;
20725;SDS011;10524;48.132;8.518;2024-02-15T06:25:53;46.35;;;23.02;;
20725;SDS011;10524;48.132;8.518;2024-02-15T06:28:23;44.28;;;21.55;;
20725;SDS011;10524;48.132;8.518;2024-02-15T06:31:07;45.22;;;23.15;;
20725;SDS011;10524;48.132;8.518;2024-02-15T06:33:52;45.25;;;23.02;;
20725;SDS011;10524;48.132;8.518;2024-02-15T06:36:46;42.08;;;22.40;;
20725;SDS011;10524;48.132;8.518;2024-02-15T06:39:31;45.00;;;22.60;;
20725;SDS011;10524;48.132;8.518;2024-02-15T06:42:06;42.70;;;22.10;;
20725;SDS011;10524;48.132;8.518;2024-02-15T06:44:32;43.65;;;22.02;;
20725;SDS011;10524;48.132;8.518;2024-02-15T06:46:58;40.00;;;17.95;;
20725;SDS011;10524;48.132;8.518;2024-02-15T06:49:24;39.60;;;19.17;;
20725;SDS011;10524;48.132;8.518;2024-02-15T06:51:50;46.78;;;20.38;;
20725;SDS011;10524;48.132;8.518;2024-02-15T06:54:17;46.00;;;20.98;;
20725;SDS011;10524;48.132;8.518;2024-02-15T06:56:43;39.55;;;21.02;;
20725;SDS011;10524;48.132;8.518;2024-02-15T06:59:11;42.70;;;21.92;;
20725;SDS011;10524;48.132;8.518;2024-02-15T07:01:42;42.00;;;20.23;;
20725;SDS011;10524;48.132;8.518;2024-02-15T07:04:08;42.83;;;19.30;;
20725;SDS011;10524;48.132;8.518;2024-02-15T07:06:37;41.42;;;19.25;;
20725;SDS011;10524;48.132;8.518;2024-02-15T07:09:04;46.55;;;20.38;;
20725;SDS011;10524;48.132;8.518;2024-02-15T07:11:33;40.53;;;20.85;;
20725;SDS011;10524;48.132;8.518;2024-02-15T07:14:02;43.03;;;23.90;;
20725;SDS011;10524;48.132;8.518;2024-02-15T07:16:29;57.90;;;28.08;;
20725;SDS011;10524;48.132;8.518;2024-02-15T07:18:55;51.05;;;24.27;;
20725;SDS011;10524;48.132;8.518;2024-02-15T07:21:21;52.72;;;26.25;;
20725;SDS011;10524;48.132;8.518;2024-02-15T07:23:52;45.13;;;23.42;;
20725;SDS011;10524;48.132;8.518;2024-02-15T07:26:22;49.08;;;24.70;;
20725;SDS011;10524;48.132;8.518;2024-02-15T07:28:55;41.78;;;24.88;;
20725;SDS011;10524;48.132;8.518;2024-02-15T07:31:21;57.75;;;31.17;;
20725;SDS011;10524;48.132;8.518;2024-02-15T07:33:48;42.35;;;26.15;;
20725;SDS011;10524;48.132;8.518;2024-02-15T07:36:19;49.72;;;33.80;;
20725;SDS011;10524;48.132;8.518;2024-02-15T07:38:52;45.83;;;29.80;;
20725;SDS011;10524;48.132;8.518;2024-02-15T07:41:19;42.22;;;28.63;;
20725;SDS011;10524;48.132;8.518;2024-02-15T07:43:47;32.20;;;19.85;;
20725;SDS011;10524;48.132;8.518;2024-02-15T07:46:14;23.40;;;15.15;;
20725;SDS011;10524;48.132;8.518;2024-02-15T07:48:42;16.88;;;12.07;;
20725;SDS011;10524;48.132;8.518;2024-02-15T07:51:15;17.02;;;11.43;;
20725;SDS011;10524;48.132;8.518;2024-02-15T07:53:43;17.00;;;13.17;;
20725;SDS011;10524;48.132;8.518;2024-02-15T07:56:09;17.05;;;13.13;;
20725;SDS011;10524;48.132;8.518;2024-02-15T07:58:38;17.83;;;12.70;;
20725;SDS011;10524;48.132;8.518;2024-02-15T08:01:07;13.02;;;10.10;;
20725;SDS011;10524;48.132;8.518;2024-02-15T08:03:36;10.20;;;8.73;;
20725;SDS011;10524;48.132;8.518;2024-02-15T08:06:02;11.10;;;8.73;;
20725;SDS011;10524;48.132;8.518;2024-02-15T08:08:32;10.15;;;8.15;;
20725;SDS011;10524;48.132;8.518;2024-02-15T08:11:00;10.13;;;8.02;;
20725;SDS011;10524;48.132;8.518;2024-02-15T08:13:29;10.13;;;7.93;;
20725;SDS011;10524;48.132;8.518;2024-02-15T08:15:55;9.40;;;7.28;;
20725;SDS011;10524;48.132;8.518;2024-02-15T08:18:21;7.47;;;6.18;;
20725;SDS011;10524;48.132;8.518;2024-02-15T08:20:47;7.00;;;5.80;;
20725;SDS011;10524;48.132;8.518;2024-02-15T08:23:15;6.85;;;5.38;;
20725;SDS011;10524;48.132;8.518;2024-02-15T08:25:41;6.72;;;5.22;;
20725;SDS011;10524;48.132;8.518;2024-02-15T08:28:07;9.30;;;6.22;;
20725;SDS011;10524;48.132;8.518;2024-02-15T08:30:33;8.90;;;6.20;;
20725;SDS011;10524;48.132;8.518;2024-02-15T08:32:59;6.68;;;4.90;;
20725;SDS011;10524;48.132;8.518;2024-02-15T08:35:24;8.00;;;4.85;;
20725;SDS011;10524;48.132;8.518;2024-02-15T08:37:50;6.07;;;5.03;;
20725;SDS011;10524;48.132;8.518;2024-02-15T08:40:18;6.20;;;4.80;;
20725;SDS011;10524;48.132;8.518;2024-02-15T08:42:49;7.28;;;5.32;;
20725;SDS011;10524;48.132;8.518;2024-02-15T08:45:15;9.30;;;6.10;;
20725;SDS011;10524;48.132;8.518;2024-02-15T08:47:42;9.02;;;6.40;;
20725;SDS011;10524;48.132;8.518;2024-02-15T08:50:09;9.30;;;6.45;;
20725;SDS011;10524;48.132;8.518;2024-02-15T08:52:39;7.40;;;5.20;;
20725;SDS011;10524;48.132;8.518;2024-02-15T08:55:05;9.50;;;5.90;;
20725;SDS011;10524;48.132;8.518;2024-02-15T08:57:34;8.15;;;6.03;;
20725;SDS011;10524;48.132;8.518;2024-02-15T09:00:04;8.55;;;5.88;;
20725;SDS011;10524;48.132;8.518;2024-02-15T09:02:38;7.80;;;6.20;;
20725;SDS011;10524;48.132;8.518;2024-02-15T09:07:41;9.27;;;7.47;;
20725;SDS011;10524;48.132;8.518;2024-02-15T09:10:11;10.75;;;6.53;;
20725;SDS011;10524;48.132;8.518;2024-02-15T09:12:37;7.38;;;6.25;;
20725;SDS011;10524;48.132;8.518;2024-02-15T09:15:08;8.82;;;6.68;;
20725;SDS011;10524;48.132;8.518;2024-02-15T09:17:37;8.00;;;6.55;;
20725;SDS011;10524;48.132;8.518;2024-02-15T09:20:09;8.57;;;6.82;;
20725;SDS011;10524;48.132;8.518;2024-02-15T09:22:42;9.20;;;6.93;;
20725;SDS011;10524;48.132;8.518;2024-02-15T09:25:10;9.55;;;6.95;;
20725;SDS011;10524;48.132;8.518;2024-02-15T09:27:38;8.20;;;6.45;;
20725;SDS011;10524;48.132;8.518;2024-02-15T09:30:04;7.25;;;5.93;;
20725;SDS011;10524;48.132;8.518;2024-02-15T09:32:34;13.07;;;6.05;;
20725;SDS011;10524;48.132;8.518;2024-02-15T09:35:06;7.63;;;6.00;;
20725;SDS011;10524;48.132;8.518;2024-02-15T09:37:35;8.63;;;6.35;;
20725;SDS011;10524;48.132;8.518;2024-02-15T09:40:08;7.30;;;6.03;;
20725;SDS011;10524;48.132;8.518;2024-02-15T09:42:35;8.98;;;5.95;;
20725;SDS011;10524;48.132;8.518;2024-02-15T09:45:01;8.45;;;5.70;;
20725;SDS011;10524;48.132;8.518;2024-02-15T09:47:34;8.63;;;6.05;;
20725;SDS011;10524;48.132;8.518;2024-02-15T09:50:09;7.13;;;6.07;;
20725;SDS011;10524;48.132;8.518;2024-02-15T09:52:40;9.77;;;6.03;;
20725;SDS011;10524;48.132;8.518;2024-02-15T09:55:09;6.43;;;5.72;;
20725;SDS011;10524;48.132;8.518;2024-02-15T09:57:40;9.13;;;6.30;;
20725;SDS011;10524;48.132;8.518;2024-02-15T10:00:09;7.60;;;5.53;;
20725;SDS011;10524;48.132;8.518;2024-02-15T10:02:40;8.50;;;5.65;;
20725;SDS011;10524;48.132;8.518;2024-02-15T10:05:07;6.60;;;5.25;;
20725;SDS011;10524;48.132;8.518;2024-02-15T10:07:42;5.75;;;5.03;;
20725;SDS011;10524;48.132;8.518;2024-02-15T10:10:16;7.30;;;5.47;;
20725;SDS011;10524;48.132;8.518;2024-02-15T10:12:44;6.20;;;5.47;;
20725;SDS011;10524;48.132;8.518;2024-02-15T10:15:33;6.75;;;5.30;;
20725;SDS011;10524;48.132;8.518;2024-02-15T10:18:06;6.95;;;4.90;;
20725;SDS011;10524;48.132;8.518;2024-02-15T10:28:02;6.70;;;4.65;;
20725;SDS011;10524;48.132;8.518;2024-02-15T10:30:33;6.15;;;4.63;;
20725;SDS011;10524;48.132;8.518;2024-02-15T10:33:00;7.05;;;4.82;;
20725;SDS011;10524;48.132;8.518;2024-02-15T10:35:26;6.95;;;4.75;;
20725;SDS011;10524;48.132;8.518;2024-02-15T10:37:53;5.57;;;4.13;;
20725;SDS011;10524;48.132;8.518;2024-02-15T10:40:33;6.88;;;4.90;;
20725;SDS011;10524;48.132;8.518;2024-02-15T10:42:59;6.22;;;4.32;;
20725;SDS011;10524;48.132;8.518;2024-02-15T10:45:27;4.47;;;3.80;;
20725;SDS011;10524;48.132;8.518;2024-02-15T10:47:56;5.30;;;4.00;;
20725;SDS011;10524;48.132;8.518;2024-02-15T10:50:22;5.45;;;4.10;;
20725;SDS011;10524;48.132;8.518;2024-02-15T10:52:56;4.88;;;3.90;;
20725;SDS011;10524;48.132;8.518;2024-02-15T10:58:16;5.07;;;3.60;;
20725;SDS011;10524;48.132;8.518;2024-02-15T11:00:44;6.47;;;3.70;;
20725;SDS011;10524;48.132;8.518;2024-02-15T11:03:14;6.88;;;3.75;;
20725;SDS011;10524;48.132;8.518;2024-02-15T11:05:49;4.80;;;3.40;;
20725;SDS011;10524;48.132;8.518;2024-02-15T11:08:16;6.68;;;3.70;;
20725;SDS011;10524;48.132;8.518;2024-02-15T11:10:42;5.10;;;3.53;;
20725;SDS011;10524;48.132;8.518;2024-02-15T11:13:08;5.07;;;3.92;;
20725;SDS011;10524;48.132;8.518;2024-02-15T11:18:01;4.63;;;3.00;;
20725;SDS011;10524;48.132;8.518;2024-02-15T11:22:59;5.22;;;3.47;;
20725;SDS011;10524;48.132;8.518;2024-02-15T11:25:38;5.07;;;3.40;;
20725;SDS011;10524;48.132;8.518;2024-02-15T11:30:46;5.82;;;4.18;;
20725;SDS011;10524;48.132;8.518;2024-02-15T11:33:24;6.88;;;4.60;;
20725;SDS011;10524;48.132;8.518;2024-02-15T11:36:03;3.67;;;3.15;;
20725;SDS011;10524;48.132;8.518;2024-02-15T11:38:32;5.22;;;3.10;;
20725;SDS011;10524;48.132;8.518;2024-02-15T11:41:03;5.03;;;3.75;;
20725;SDS011;10524;48.132;8.518;2024-02-15T11:46:14;4.72;;;3.35;;
20725;SDS011;10524;48.132;8.518;2024-02-15T11:48:41;8.60;;;3.00;;
20725;SDS011;10524;48.132;8.518;2024-02-15T11:51:07;4.75;;;3.10;;
20725;SDS011;10524;48.132;8.518;2024-02-15T11:53:36;3.72;;;2.90;;
20725;SDS011;10524;48.132;8.518;2024-02-15T11:56:02;5.13;;;2.90;;
20725;SDS011;10524;48.132;8.518;2024-02-15T11:58:35;4.57;;;3.17;;
20725;SDS011;10524;48.132;8.518;2024-02-15T12:01:17;2.92;;;2.63;;
20725;SDS011;10524;48.132;8.518;2024-02-15T12:04:01;3.70;;;2.80;;
20725;SDS011;10524;48.132;8.518;2024-02-15T12:06:46;3.88;;;2.35;;
20725;SDS011;10524;48.132;8.518;2024-02-15T12:09:31;3.85;;;2.67;;
20725;SDS011;10524;48.132;8.518;2024-02-15T12:12:15;4.20;;;2.53;;
20725;SDS011;10524;48.132;8.518;2024-02-15T12:15:00;3.45;;;2.10;;
20725;SDS011;10524;48.132;8.518;2024-02-15T12:17:45;3.38;;;2.20;;
20725;SDS011;10524;48.132;8.518;2024-02-15T12:20:29;2.70;;;2.13;;
20725;SDS011;10524;48.132;8.518;2024-02-15T12:22:57;2.58;;;1.85;;
20725;SDS011;10524;48.132;8.518;2024-02-15T12:25:25;2.22;;;1.75;;
20725;SDS011;10524;48.132;8.518;2024-02-15T12:27:55;3.30;;;2.10;;
20725;SDS011;10524;48.132;8.518;2024-02-15T12:30:23;3.00;;;2.00;;
20725;SDS011;10524;48.132;8.518;2024-02-15T12:32:51;5.68;;;1.92;;
20725;SDS011;10524;48.132;8.518;2024-02-15T12:35:21;3.70;;;1.67;;
20725;SDS011;10524;48.132;8.518;2024-02-15T12:38:03;3.28;;;1.83;;
20725;SDS011;10524;48.132;8.518;2024-02-15T12:40:31;4.93;;;1.65;;
20725;SDS011;10524;48.132;8.518;2024-02-15T12:42:57;3.25;;;1.80;;
20725;SDS011;10524;48.132;8.518;2024-02-15T12:45:25;3.42;;;1.50;;
20725;SDS011;10524;48.132;8.518;2024-02-15T12:47:55;2.58;;;1.50;;
20725;SDS011;10524;48.132;8.518;2024-02-15T12:50:22;2.30;;;1.50;;
20725;SDS011;10524;48.132;8.518;2024-02-15T12:52:53;1.85;;;1.30;;
20725;SDS011;10524;48.132;8.518;2024-02-15T12:55:21;1.58;;;1.23;;
20725;SDS011;10524;48.132;8.518;2024-02-15T12:57:53;2.15;;;1.30;;
20725;SDS011;10524;48.132;8.518;2024-02-15T13:02:53;3.22;;;1.40;;
20725;SDS011;10524;48.132;8.518;2024-02-15T13:05:21;2.35;;;1.15;;
20725;SDS011;10524;48.132;8.518;2024-02-15T13:07:48;2.45;;;1.42;;
20725;SDS011;10524;48.132;8.518;2024-02-15T13:10:15;2.47;;;1.40;;
20725;SDS011;10524;48.132;8.518;2024-02-15T13:12:41;2.05;;;1.30;;
20725;SDS011;10524;48.132;8.518;2024-02-15T13:15:09;1.60;;;1.10;;
20725;SDS011;10524;48.132;8.518;2024-02-15T13:17:49;2.40;;;1.20;;
20725;SDS011;10524;48.132;8.518;2024-02-15T13:20:19;1.42;;;1.20;;
20725;SDS011;10524;48.132;8.518;2024-02-15T13:22:52;4.03;;;1.25;;
20725;SDS011;10524;48.132;8.518;2024-02-15T13:25:19;1.88;;;1.30;;
20725;SDS011;10524;48.132;8.518;2024-02-15T13:27:46;1.58;;;1.20;;
20725;SDS011;10524;48.132;8.518;2024-02-15T13:30:12;2.20;;;1.10;;
20725;SDS011;10524;48.132;8.518;2024-02-15T13:32:38;2.65;;;1.30;;
20725;SDS011;10524;48.132;8.518;2024-02-15T13:35:08;2.50;;;1.30;;
20725;SDS011;10524;48.132;8.518;2024-02-15T13:37:56;1.77;;;1.23;;
20725;SDS011;10524;48.132;8.518;2024-02-15T13:40:25;2.85;;;1.10;;
20725;SDS011;10524;48.132;8.518;2024-02-15T13:42:56;2.53;;;1.50;;
20725;SDS011;10524;48.132;8.518;2024-02-15T13:45:30;3.60;;;1.40;;
20725;SDS011;10524;48.132;8.518;2024-02-15T13:48:02;1.33;;;1.10;;
20725;SDS011;10524;48.132;8.518;2024-02-15T13:50:35;2.40;;;1.10;;
20725;SDS011;10524;48.132;8.518;2024-02-15T13:53:03;2.15;;;0.90;;
20725;SDS011;10524;48.132;8.518;2024-02-15T13:55:29;1.02;;;0.90;;
20725;SDS011;10524;48.132;8.518;2024-02-15T13:57:56;1.50;;;1.40;;
20725;SDS011;10524;48.132;8.518;2024-02-15T14:00:22;2.65;;;1.20;;
20725;SDS011;10524;48.132;8.518;2024-02-15T14:02:50;1.88;;;0.90;;
20725;SDS011;10524;48.132;8.518;2024-02-15T14:05:18;1.35;;;0.90;;
20725;SDS011;10524;48.132;8.518;2024-02-15T14:07:48;2.25;;;1.10;;
20725;SDS011;10524;48.132;8.518;2024-02-15T14:10:20;1.80;;;1.10;;
20725;SDS011;10524;48.132;8.518;2024-02-15T14:12:50;3.00;;;1.38;;
20725;SDS011;10524;48.132;8.518;2024-02-15T14:15:30;1.35;;;0.90;;
20725;SDS011;10524;48.132;8.518;2024-02-15T14:20:36;1.10;;;0.95;;
20725;SDS011;10524;48.132;8.518;2024-02-15T14:23:02;2.90;;;1.20;;
20725;SDS011;10524;48.132;8.518;2024-02-15T14:25:31;1.25;;;1.00;;
20725;SDS011;10524;48.132;8.518;2024-02-15T14:27:57;2.15;;;1.33;;
20725;SDS011;10524;48.132;8.518;2024-02-15T14:30:24;1.20;;;0.85;;
20725;SDS011;10524;48.132;8.518;2024-02-15T14:33:09;2.45;;;0.75;;
20725;SDS011;10524;48.132;8.518;2024-02-15T14:35:37;1.63;;;1.10;;
20725;SDS011;10524;48.132;8.518;2024-02-15T14:38:08;1.70;;;1.00;;
20725;SDS011;10524;48.132;8.518;2024-02-15T14:40:39;3.72;;;1.40;;
20725;SDS011;10524;48.132;8.518;2024-02-15T14:43:08;2.17;;;1.40;;
20725;SDS011;10524;48.132;8.518;2024-02-15T14:45:38;1.13;;;0.80;;
20725;SDS011;10524;48.132;8.518;2024-02-15T14:48:07;3.80;;;1.02;;
20725;SDS011;10524;48.132;8.518;2024-02-15T14:50:38;1.85;;;0.90;;
20725;SDS011;10524;48.132;8.518;2024-02-15T14:53:07;1.30;;;1.00;;
20725;SDS011;10524;48.132;8.518;2024-02-15T14:55:36;1.85;;;0.90;;
20725;SDS011;10524;48.132;8.518;2024-02-15T14:58:07;1.40;;;0.95;;
20725;SDS011;10524;48.132;8.518;2024-02-15T15:00:34;1.85;;;1.23;;
20725;SDS011;10524;48.132;8.518;2024-02-15T15:03:00;3.63;;;1.40;;
20725;SDS011;10524;48.132;8.518;2024-02-15T15:05:27;1.73;;;0.95;;
20725;SDS011;10524;48.132;8.518;2024-02-15T15:08:11;1.65;;;1.05;;
20725;SDS011;10524;48.132;8.518;2024-02-15T15:10:56;2.20;;;1.40;;
20725;SDS011;10524;48.132;8.518;2024-02-15T15:13:40;2.45;;;1.33;;
20725;SDS011;10524;48.132;8.518;2024-02-15T15:16:06;3.38;;;1.60;;